Time;durP1;ratioP1;P1;durP2;ratioP2;P2;SDS_P1;SDS_P2;PMS_P1;PMS_P2;Temp;Humidity;BMP_temperature;BMP_pressure;BME280_temperature;BME280_humidity;BME280_pressure;Samples;Min_cycle;Max_cycle;Signal;HPM_P1;HPM_P2
2022/03/12 00:01:15;;;;;;;21.33;9.40;;;11.20;35.70;;;;;;5114304;28;20032;-63
2022/03/12 00:03:42;;;;;;;13.73;7.13;;;11.20;35.80;;;;;;5114257;28;20036;-63
2022/03/12 00:06:09;;;;;;;13.50;7.80;;;11.20;36.00;;;;;;5114236;28;20139;-64
2022/03/12 00:08:46;;;;;;;19.00;7.80;;;11.20;36.00;;;;;;5114216;28;20031;-64
2022/03/12 00:11:20;;;;;;;12.35;7.63;;;11.20;35.90;;;;;;5114179;28;20028;-64
2022/03/12 00:13:48;;;;;;;14.38;7.80;;;11.20;35.90;;;;;;5114164;28;20044;-64
2022/03/12 00:16:18;;;;;;;14.77;7.80;;;11.20;36.20;;;;;;5113983;28;20024;-64
2022/03/12 00:18:53;;;;;;;13.18;7.22;;;11.20;36.10;;;;;;5114057;28;20535;-64
2022/03/12 00:21:21;;;;;;;15.45;8.02;;;11.20;35.50;;;;;;5114009;28;20031;-63
2022/03/12 00:23:48;;;;;;;16.05;7.95;;;11.20;36.20;;;;;;5113857;28;20027;-64
2022/03/12 00:26:15;;;;;;;17.05;8.80;;;11.20;36.10;;;;;;5113880;28;20024;-64
2022/03/12 00:28:42;;;;;;;13.60;7.45;;;11.20;36.30;;;;;;5113972;28;20020;-64
2022/03/12 00:31:08;;;;;;;17.10;7.93;;;11.20;36.30;;;;;;5113740;28;20020;-64
2022/03/12 00:33:33;;;;;;;15.25;7.55;;;11.20;36.30;;;;;;5113772;28;20028;-64
2022/03/12 00:36:00;;;;;;;16.67;8.27;;;11.10;36.40;;;;;;5113743;28;20043;-64
2022/03/12 00:38:26;;;;;;;16.27;8.13;;;11.20;36.00;;;;;;5113714;28;20012;-64
2022/03/12 00:40:52;;;;;;;18.95;8.65;;;11.10;36.30;;;;;;5113661;28;20027;-64
2022/03/12 00:43:18;;;;;;;18.95;7.88;;;11.10;36.50;;;;;;5113621;28;20028;-63
2022/03/12 00:45:45;;;;;;;12.70;7.80;;;11.10;36.40;;;;;;5113624;28;20038;-63
2022/03/12 00:48:11;;;;;;;17.20;7.53;;;11.10;36.30;;;;;;5112937;28;20165;-64
2022/03/12 00:50:37;;;;;;;15.38;7.80;;;11.10;36.50;;;;;;5113466;28;20031;-64
2022/03/12 00:53:02;;;;;;;17.92;8.38;;;11.10;36.50;;;;;;5113545;28;20024;-64
2022/03/12 00:55:28;;;;;;;16.98;9.38;;;11.10;36.20;;;;;;5113499;28;20021;-64
2022/03/12 00:57:55;;;;;;;20.08;7.95;;;11.20;36.50;;;;;;5113444;28;20035;-64
2022/03/12 01:00:23;;;;;;;18.17;7.82;;;11.20;36.20;;;;;;5113260;28;20073;-63
2022/03/12 01:02:49;;;;;;;17.05;8.00;;;11.20;36.50;;;;;;5113405;28;20111;-64
2022/03/12 01:05:18;;;;;;;15.13;8.50;;;11.20;36.10;;;;;;5113374;28;20079;-64
2022/03/12 01:07:45;;;;;;;21.30;8.68;;;11.30;36.10;;;;;;5113442;28;20020;-64
2022/03/12 01:10:11;;;;;;;15.35;7.47;;;11.30;36.10;;;;;;5113235;28;20033;-64
2022/03/12 01:12:37;;;;;;;16.92;8.75;;;11.30;36.00;;;;;;5113315;28;20024;-63
2022/03/12 01:15:05;;;;;;;18.45;7.47;;;11.30;36.10;;;;;;5113273;28;20020;-64
2022/03/12 01:17:34;;;;;;;17.10;7.53;;;11.30;36.20;;;;;;5113296;28;20030;-64
2022/03/12 01:20:02;;;;;;;14.77;7.22;;;11.30;36.30;;;;;;5113329;28;20077;-64
2022/03/12 01:22:29;;;;;;;18.67;7.47;;;11.30;36.10;;;;;;5113185;28;20028;-63
2022/03/12 01:24:55;;;;;;;18.05;7.43;;;11.30;36.00;;;;;;5113113;28;20466;-64
2022/03/12 01:27:21;;;;;;;23.10;8.57;;;11.30;36.20;;;;;;5113160;28;20028;-64
2022/03/12 01:29:46;;;;;;;16.90;8.70;;;11.40;36.20;;;;;;5113062;28;20035;-64
2022/03/12 01:32:12;;;;;;;17.33;7.85;;;11.40;36.50;;;;;;5113131;28;20024;-64
2022/03/12 01:34:38;;;;;;;18.27;8.27;;;11.40;36.40;;;;;;5113107;28;20105;-64
2022/03/12 01:37:04;;;;;;;14.20;7.30;;;11.40;36.30;;;;;;5113083;28;20046;-64
2022/03/12 01:39:30;;;;;;;17.85;8.30;;;11.40;36.40;;;;;;5113064;28;20070;-64
2022/03/12 01:41:56;;;;;;;15.82;7.85;;;11.40;36.50;;;;;;5113050;28;20032;-64
2022/03/12 01:44:23;;;;;;;17.95;7.43;;;11.40;37.20;;;;;;5113033;28;20025;-63
2022/03/12 01:46:49;;;;;;;16.70;6.63;;;11.40;36.40;;;;;;5113054;28;20024;-64
2022/03/12 01:49:17;;;;;;;20.83;7.72;;;11.40;36.30;;;;;;5112979;28;20051;-64
2022/03/12 01:51:44;;;;;;;18.02;8.90;;;11.30;36.10;;;;;;5112856;28;20024;-64
2022/03/12 01:54:11;;;;;;;20.50;8.57;;;11.40;36.60;;;;;;5112914;28;20020;-64
2022/03/12 01:56:38;;;;;;;22.35;7.68;;;11.40;36.70;;;;;;5112911;28;20030;-64
2022/03/12 01:59:04;;;;;;;14.75;7.72;;;11.40;37.10;;;;;;5113150;28;20026;-64
2022/03/12 02:01:31;;;;;;;22.52;8.20;;;11.40;37.10;;;;;;5116549;28;20048;-63
2022/03/12 02:04:00;;;;;;;16.45;7.70;;;11.40;37.10;;;;;;5116625;28;20088;-64
2022/03/12 02:06:26;;;;;;;17.05;7.63;;;11.30;36.30;;;;;;5116579;28;20039;-63
2022/03/12 02:08:55;;;;;;;15.70;7.93;;;11.30;37.20;;;;;;5116633;28;20028;-64
2022/03/12 02:11:27;;;;;;;18.90;7.40;;;11.30;37.20;;;;;;5116414;28;20080;-63
2022/03/12 02:14:09;;;;;;;15.45;7.00;;;11.30;37.50;;;;;;5116630;28;20027;-64
2022/03/12 02:16:35;;;;;;;14.23;6.63;;;11.30;37.20;;;;;;5116523;28;20024;-64
2022/03/12 02:19:02;;;;;;;17.38;7.45;;;11.20;37.00;;;;;;5116332;28;20028;-64
2022/03/12 02:21:40;;;;;;;20.55;8.32;;;11.20;37.80;;;;;;5116258;28;20028;-64
2022/03/12 02:24:11;;;;;;;15.05;8.43;;;11.20;38.30;;;;;;5116143;28;20038;-64
2022/03/12 02:26:38;;;;;;;16.10;8.18;;;11.20;38.70;;;;;;5116252;28;20107;-64
2022/03/12 02:29:09;;;;;;;13.60;8.10;;;11.20;38.60;;;;;;5116161;28;20050;-64
2022/03/12 02:31:36;;;;;;;16.98;7.95;;;11.20;39.10;;;;;;5116134;28;20024;-64
2022/03/12 02:34:04;;;;;;;17.23;8.05;;;11.10;38.80;;;;;;5116060;28;20021;-63
2022/03/12 02:36:29;;;;;;;16.15;8.18;;;11.10;38.80;;;;;;5116023;28;20020;-63
2022/03/12 02:39:04;;;;;;;13.88;7.88;;;11.10;38.80;;;;;;5115957;28;20044;-64
2022/03/12 02:41:30;;;;;;;17.83;8.27;;;11.20;38.60;;;;;;5115929;28;20084;-64
2022/03/12 02:43:56;;;;;;;12.77;6.85;;;11.10;38.80;;;;;;5115846;28;20086;-64
2022/03/12 02:46:27;;;;;;;17.83;8.00;;;11.10;38.60;;;;;;5115895;28;20024;-64
2022/03/12 02:48:53;;;;;;;15.83;8.57;;;11.10;39.10;;;;;;5115833;28;20083;-64
2022/03/12 02:51:23;;;;;;;16.83;7.68;;;11.10;38.80;;;;;;5115662;28;20031;-64
2022/03/12 02:53:50;;;;;;;14.98;7.97;;;11.00;38.90;;;;;;5115669;28;20109;-64
2022/03/12 02:56:17;;;;;;;16.75;8.55;;;11.00;39.20;;;;;;5115744;28;20080;-63
2022/03/12 02:58:43;;;;;;;15.93;8.07;;;11.00;39.00;;;;;;5115534;28;20016;-64
2022/03/12 03:01:14;;;;;;;13.98;7.32;;;11.00;39.30;;;;;;5115334;28;20063;-64
2022/03/12 03:03:41;;;;;;;14.80;7.80;;;11.00;39.70;;;;;;5115576;28;20020;-64
2022/03/12 03:06:08;;;;;;;15.55;7.68;;;10.90;39.50;;;;;;5115434;28;20032;-64
2022/03/12 03:08:39;;;;;;;21.45;8.88;;;10.90;39.50;;;;;;5115381;28;20013;-64
2022/03/12 03:11:13;;;;;;;15.98;8.60;;;10.90;39.40;;;;;;5114652;28;20024;-63
2022/03/12 03:13:43;;;;;;;19.25;10.48;;;11.00;39.40;;;;;;5115323;28;20028;-64
2022/03/12 03:16:10;;;;;;;17.55;8.25;;;11.00;39.40;;;;;;5115241;28;20044;-64
2022/03/12 03:18:39;;;;;;;16.92;8.30;;;11.00;39.90;;;;;;5115199;28;20020;-64
2022/03/12 03:21:08;;;;;;;16.42;8.60;;;11.00;40.20;;;;;;5115120;28;20028;-64
2022/03/12 03:23:34;;;;;;;15.57;7.97;;;11.00;40.50;;;;;;5115050;28;20031;-64
2022/03/12 03:26:00;;;;;;;14.80;8.10;;;11.00;40.50;;;;;;5115002;28;20028;-64
2022/03/12 03:28:26;;;;;;;15.48;8.20;;;11.00;40.40;;;;;;5114967;28;20024;-63
2022/03/12 03:30:52;;;;;;;14.70;7.78;;;11.00;40.70;;;;;;5114861;28;20043;-63
2022/03/12 03:33:20;;;;;;;17.52;8.38;;;11.00;40.80;;;;;;5114872;28;20024;-64
2022/03/12 03:35:47;;;;;;;16.42;8.18;;;10.90;42.00;;;;;;5114843;28;20036;-64
2022/03/12 03:38:13;;;;;;;15.98;8.57;;;10.90;41.70;;;;;;5114786;28;20024;-63
2022/03/12 03:40:41;;;;;;;12.55;7.68;;;10.90;41.40;;;;;;5114788;28;20024;-64
2022/03/12 03:43:09;;;;;;;16.98;8.13;;;10.90;42.70;;;;;;5114705;28;20079;-64
2022/03/12 03:45:35;;;;;;;15.35;8.00;;;10.90;42.00;;;;;;5114689;28;20027;-64
2022/03/12 03:48:01;;;;;;;17.15;8.75;;;10.90;42.00;;;;;;5114730;28;20087;-64
2022/03/12 03:50:27;;;;;;;16.17;7.78;;;10.90;42.20;;;;;;5114468;28;20029;-64
2022/03/12 03:52:56;;;;;;;16.10;8.00;;;10.90;42.80;;;;;;5114498;28;20017;-64
2022/03/12 03:55:25;;;;;;;17.77;9.15;;;10.90;42.80;;;;;;5114443;28;20023;-64
2022/03/12 03:57:53;;;;;;;16.50;7.88;;;10.80;43.10;;;;;;5114454;28;20024;-64
2022/03/12 04:00:22;;;;;;;14.07;7.85;;;10.90;43.10;;;;;;5114239;28;20056;-64
2022/03/12 04:03:01;;;;;;;13.40;7.70;;;10.90;43.50;;;;;;5114362;28;20043;-64
2022/03/12 04:05:36;;;;;;;17.85;8.90;;;10.80;43.90;;;;;;5114325;28;20046;-64
2022/03/12 04:08:06;;;;;;;17.33;8.52;;;10.80;44.10;;;;;;5114271;28;20055;-64
2022/03/12 04:10:31;;;;;;;16.52;8.35;;;10.90;43.80;;;;;;5114267;28;20027;-64
2022/03/12 04:12:58;;;;;;;15.07;8.55;;;10.90;44.50;;;;;;5114167;28;20479;-64
2022/03/12 04:15:24;;;;;;;15.68;7.40;;;10.80;44.70;;;;;;5114128;28;20028;-64
2022/03/12 04:17:51;;;;;;;16.85;8.63;;;10.70;45.10;;;;;;5114070;28;20039;-64
2022/03/12 04:20:21;;;;;;;16.58;9.07;;;10.70;45.10;;;;;;5113995;28;20031;-64
2022/03/12 04:22:49;;;;;;;16.20;8.75;;;10.70;45.60;;;;;;5113088;28;20028;-63
2022/03/12 04:25:15;;;;;;;16.73;8.20;;;10.60;46.00;;;;;;5113891;28;20048;-64
2022/03/12 04:27:44;;;;;;;17.75;8.73;;;10.50;46.20;;;;;;5113888;28;20028;-63
2022/03/12 04:30:18;;;;;;;17.50;8.90;;;10.50;46.20;;;;;;5113924;28;20065;-64
2022/03/12 04:32:45;;;;;;;18.25;8.52;;;10.40;46.20;;;;;;5113835;28;20028;-63
2022/03/12 04:35:11;;;;;;;19.33;8.43;;;10.40;46.10;;;;;;5113928;28;20016;-63
2022/03/12 04:37:37;;;;;;;15.32;7.80;;;10.30;46.30;;;;;;5113732;28;20024;-63
2022/03/12 04:40:10;;;;;;;18.15;9.02;;;10.30;46.50;;;;;;5113693;28;20028;-64
2022/03/12 04:42:38;;;;;;;15.60;9.05;;;10.20;46.70;;;;;;5113721;28;20051;-64
2022/03/12 04:45:10;;;;;;;14.05;7.55;;;10.20;47.00;;;;;;5113624;28;20083;-64
2022/03/12 04:47:36;;;;;;;16.38;8.50;;;10.20;46.70;;;;;;5113750;28;20028;-64
2022/03/12 04:50:05;;;;;;;15.50;8.48;;;10.20;47.10;;;;;;5113496;28;20053;-64
2022/03/12 04:52:31;;;;;;;16.13;8.00;;;10.10;47.40;;;;;;5113547;28;20027;-64
2022/03/12 04:54:58;;;;;;;15.02;7.95;;;10.10;47.30;;;;;;5113472;28;20085;-64
2022/03/12 04:57:24;;;;;;;14.77;8.35;;;10.10;47.30;;;;;;5113458;28;20020;-64
2022/03/12 04:59:50;;;;;;;16.50;8.13;;;10.00;47.20;;;;;;5113246;28;20100;-64
2022/03/12 05:02:15;;;;;;;13.63;7.75;;;10.10;47.30;;;;;;5113446;28;20020;-64
2022/03/12 05:04:41;;;;;;;16.25;8.88;;;10.10;47.20;;;;;;5113497;28;20020;-64
2022/03/12 05:07:08;;;;;;;14.40;7.85;;;10.10;47.40;;;;;;5113536;28;20139;-64
2022/03/12 05:09:35;;;;;;;17.60;8.73;;;10.00;47.30;;;;;;5113378;28;20356;-64
2022/03/12 05:12:04;;;;;;;15.93;8.30;;;10.00;48.10;;;;;;5113260;28;20479;-64
2022/03/12 05:14:31;;;;;;;15.63;8.70;;;9.80;48.30;;;;;;5113500;28;20036;-64
2022/03/12 05:16:57;;;;;;;16.73;8.68;;;9.80;48.50;;;;;;5113291;28;20020;-63
2022/03/12 05:19:22;;;;;;;17.05;8.15;;;9.70;49.00;;;;;;5113247;28;20031;-64
2022/03/12 05:21:48;;;;;;;14.77;8.20;;;9.70;49.30;;;;;;5113239;28;20032;-64
2022/03/12 05:24:15;;;;;;;16.75;7.93;;;9.70;49.10;;;;;;5113141;28;20036;-64
2022/03/12 05:26:40;;;;;;;15.45;7.57;;;9.70;49.20;;;;;;5113224;28;20035;-64
2022/03/12 05:29:06;;;;;;;16.65;7.88;;;9.70;49.30;;;;;;5113172;28;20028;-63
2022/03/12 05:31:31;;;;;;;15.50;7.97;;;9.70;49.40;;;;;;5113071;28;20058;-64
2022/03/12 05:33:57;;;;;;;15.07;8.15;;;9.70;49.70;;;;;;5113524;28;20023;-64
2022/03/12 05:36:23;;;;;;;17.10;8.23;;;9.70;49.80;;;;;;5117188;28;20502;-63
2022/03/12 05:38:48;;;;;;;15.60;8.30;;;9.70;50.00;;;;;;5117261;28;20058;-63
2022/03/12 05:41:14;;;;;;;17.38;8.60;;;9.70;50.50;;;;;;5117058;28;20089;-64
2022/03/12 05:43:46;;;;;;;13.23;8.00;;;9.70;50.70;;;;;;5117019;28;20035;-64
2022/03/12 05:46:15;;;;;;;15.48;8.32;;;9.70;50.60;;;;;;5117047;28;20053;-64
2022/03/12 05:48:42;;;;;;;14.80;8.27;;;9.70;50.50;;;;;;5116965;28;20031;-63
2022/03/12 05:51:09;;;;;;;16.30;8.32;;;9.80;50.50;;;;;;5116848;28;20029;-64
2022/03/12 05:53:36;;;;;;;15.05;7.72;;;9.80;50.80;;;;;;5116862;28;20013;-64
2022/03/12 05:56:03;;;;;;;16.02;7.65;;;9.80;51.50;;;;;;5116825;28;20012;-64
2022/03/12 05:58:35;;;;;;;14.60;7.85;;;9.80;51.40;;;;;;5116731;28;20021;-63
2022/03/12 06:01:01;;;;;;;14.00;7.37;;;9.80;51.70;;;;;;5116611;28;20048;-64
2022/03/12 06:03:27;;;;;;;14.23;7.63;;;9.80;51.70;;;;;;5116716;28;20266;-64
2022/03/12 06:05:59;;;;;;;15.40;8.98;;;9.80;52.50;;;;;;5116601;28;20051;-64
2022/03/12 06:08:26;;;;;;;16.33;8.27;;;9.80;52.00;;;;;;5116676;28;20024;-64
2022/03/12 06:10:55;;;;;;;14.80;8.32;;;9.80;52.30;;;;;;5116455;28;20027;-64
2022/03/12 06:13:27;;;;;;;14.65;7.25;;;9.80;52.70;;;;;;5116508;28;20016;-64
2022/03/12 06:16:00;;;;;;;17.40;8.43;;;9.70;53.10;;;;;;5116475;28;20016;-63
2022/03/12 06:18:33;;;;;;;14.88;7.97;;;9.60;53.80;;;;;;5116511;28;20038;-64
2022/03/12 06:20:59;;;;;;;14.68;7.88;;;9.50;54.10;;;;;;5116402;28;20020;-64
2022/03/12 06:23:25;;;;;;;16.45;8.30;;;9.50;54.60;;;;;;5116271;28;20035;-64
2022/03/12 06:25:52;;;;;;;13.10;7.75;;;9.50;55.10;;;;;;5116165;28;20025;-64
2022/03/12 06:28:19;;;;;;;15.07;7.45;;;9.60;55.20;;;;;;5116186;28;20030;-64
2022/03/12 06:30:45;;;;;;;13.18;7.63;;;9.60;54.70;;;;;;5116076;28;20044;-64
2022/03/12 06:33:11;;;;;;;14.10;7.57;;;9.60;55.10;;;;;;5116096;28;20077;-64
2022/03/12 06:35:37;;;;;;;15.65;7.45;;;9.60;55.80;;;;;;5116073;28;20099;-63
2022/03/12 06:38:03;;;;;;;15.77;8.05;;;9.60;55.90;;;;;;5116018;28;20019;-63
2022/03/12 06:40:29;;;;;;;16.15;7.63;;;9.60;56.10;;;;;;5115945;28;20032;-64
2022/03/12 06:42:58;;;;;;;12.45;7.00;;;9.60;56.50;;;;;;5115933;28;20539;-64
2022/03/12 06:45:24;;;;;;;12.05;7.13;;;9.60;56.70;;;;;;5115378;28;20024;-64
2022/03/12 06:47:50;;;;;;;14.57;7.68;;;9.60;56.40;;;;;;5115372;28;20036;-64
2022/03/12 06:50:22;;;;;;;14.15;7.25;;;9.70;57.20;;;;;;5115690;28;20032;-64
2022/03/12 06:52:50;;;;;;;16.33;7.55;;;9.70;57.80;;;;;;5115695;28;20111;-64
2022/03/12 06:55:18;;;;;;;12.65;7.05;;;9.70;57.20;;;;;;5115637;28;20021;-64
2022/03/12 06:57:46;;;;;;;14.55;7.93;;;9.70;57.50;;;;;;5115503;28;20028;-64
2022/03/12 07:00:14;;;;;;;13.88;7.88;;;9.80;57.30;;;;;;5115398;28;20077;-64
2022/03/12 07:02:41;;;;;;;13.50;7.13;;;9.80;57.50;;;;;;5115546;28;20055;-63
2022/03/12 07:05:08;;;;;;;14.13;7.38;;;9.90;58.10;;;;;;5115515;28;20040;-64
2022/03/12 07:07:33;;;;;;;14.80;7.63;;;9.80;59.00;;;;;;5115464;28;20030;-64
2022/03/12 07:09:59;;;;;;;12.90;7.30;;;9.80;59.10;;;;;;5115294;28;20060;-64
2022/03/12 07:12:25;;;;;;;14.68;7.47;;;9.80;58.90;;;;;;5115332;28;20024;-64
2022/03/12 07:14:50;;;;;;;11.63;7.18;;;9.90;60.10;;;;;;5115275;28;20062;-64
2022/03/12 07:17:16;;;;;;;18.02;6.78;;;9.90;59.60;;;;;;5115270;28;20012;-64
2022/03/12 07:19:42;;;;;;;12.00;6.47;;;9.90;60.50;;;;;;5115177;28;20031;-64
2022/03/12 07:22:07;;;;;;;13.35;7.20;;;9.90;60.30;;;;;;5115135;28;20028;-64
2022/03/12 07:24:35;;;;;;;15.32;7.35;;;10.00;60.50;;;;;;5115024;28;20031;-64
2022/03/12 07:27:01;;;;;;;14.65;7.03;;;10.00;60.90;;;;;;5115051;28;20079;-64
2022/03/12 07:29:29;;;;;;;12.25;6.75;;;10.10;61.70;;;;;;5114963;28;20046;-64
2022/03/12 07:31:55;;;;;;;12.68;7.22;;;10.00;61.80;;;;;;5114892;28;20035;-63
2022/03/12 07:34:21;;;;;;;12.80;6.90;;;10.10;62.40;;;;;;5114856;28;20110;-64
2022/03/12 07:36:47;;;;;;;14.77;6.60;;;10.00;62.30;;;;;;5114892;28;20016;-64
2022/03/12 07:39:13;;;;;;;15.50;7.75;;;10.00;63.10;;;;;;5114760;28;20032;-64
2022/03/12 07:41:38;;;;;;;14.40;7.20;;;10.10;63.50;;;;;;5114747;28;20028;-64
2022/03/12 07:44:07;;;;;;;15.25;7.22;;;10.20;63.20;;;;;;5114653;28;20028;-64
2022/03/12 07:46:33;;;;;;;13.02;7.20;;;10.20;63.40;;;;;;5114678;28;20031;-64
2022/03/12 07:48:59;;;;;;;11.50;6.90;;;10.30;64.00;;;;;;5114583;28;20028;-64
2022/03/12 07:51:26;;;;;;;17.95;7.43;;;10.30;64.00;;;;;;5114468;28;20053;-64
2022/03/12 07:53:52;;;;;;;12.98;7.70;;;10.40;64.10;;;;;;5114445;28;20493;-64
2022/03/12 07:56:18;;;;;;;13.60;7.57;;;10.40;64.50;;;;;;5114482;28;20032;-64
2022/03/12 07:58:44;;;;;;;10.98;6.13;;;10.50;64.80;;;;;;5114238;28;20016;-64
2022/03/12 08:01:09;;;;;;;12.65;7.30;;;10.50;65.10;;;;;;5114231;28;20047;-63
2022/03/12 08:03:36;;;;;;;14.95;7.82;;;10.60;66.20;;;;;;5114300;28;20028;-64
2022/03/12 08:06:03;;;;;;;10.57;6.45;;;10.60;67.30;;;;;;5114205;28;20020;-63
2022/03/12 08:08:29;;;;;;;16.30;7.57;;;10.50;66.80;;;;;;5096178;28;20502;-64
2022/03/12 08:13:39;;;;;;;11.18;6.32;;;10.60;67.40;;;;;;5114302;28;20050;-64
2022/03/12 08:16:06;;;;;;;14.02;7.63;;;10.70;67.40;;;;;;5114093;28;20028;-64
2022/03/12 08:18:31;;;;;;;12.13;6.70;;;10.70;67.10;;;;;;5114065;28;20104;-64
2022/03/12 08:20:57;;;;;;;16.48;7.55;;;10.80;67.70;;;;;;5114143;28;20031;-64
2022/03/12 08:23:23;;;;;;;12.30;7.10;;;10.80;68.10;;;;;;5113934;28;20039;-64
2022/03/12 08:25:48;;;;;;;12.10;7.68;;;10.80;68.90;;;;;;5113845;28;20023;-64
2022/03/12 08:28:14;;;;;;;9.85;6.63;;;10.80;68.60;;;;;;5114009;28;20055;-64
2022/03/12 08:30:40;;;;;;;11.50;6.97;;;10.80;68.40;;;;;;5113784;28;20042;-64
2022/03/12 08:33:06;;;;;;;11.85;6.63;;;10.90;69.00;;;;;;5113798;28;20032;-64
2022/03/12 08:35:32;;;;;;;12.55;6.65;;;11.00;69.60;;;;;;5113730;28;20107;-64
2022/03/12 08:37:58;;;;;;;13.38;7.65;;;11.00;69.30;;;;;;5113748;28;20035;-63
2022/03/12 08:40:25;;;;;;;11.95;6.93;;;11.10;69.70;;;;;;5113683;28;20032;-64
2022/03/12 08:42:53;;;;;;;13.85;6.68;;;11.10;69.30;;;;;;5113590;28;20055;-64
2022/03/12 08:45:18;;;;;;;11.43;5.90;;;11.20;69.50;;;;;;5113620;28;20024;-64
2022/03/12 08:47:44;;;;;;;11.15;6.38;;;11.20;69.50;;;;;;5113583;28;20432;-64
2022/03/12 08:50:10;;;;;;;12.00;6.72;;;11.30;69.90;;;;;;5113438;28;20024;-64
2022/03/12 08:52:37;;;;;;;14.32;6.65;;;11.40;69.90;;;;;;5113497;28;20027;-63
2022/03/12 08:55:04;;;;;;;12.55;7.53;;;11.50;69.50;;;;;;5113472;28;20016;-64
2022/03/12 08:57:30;;;;;;;10.15;6.18;;;11.50;69.80;;;;;;5113419;28;20028;-64
2022/03/12 08:59:56;;;;;;;11.68;6.15;;;11.60;69.40;;;;;;5113239;28;20040;-64
2022/03/12 09:02:23;;;;;;;13.10;8.88;;;11.70;69.00;;;;;;5113317;28;20024;-64
2022/03/12 09:04:49;;;;;;;9.20;5.38;;;11.80;69.30;;;;;;5113337;28;20023;-64
2022/03/12 09:07:14;;;;;;;11.70;5.18;;;12.00;69.20;;;;;;5113306;28;20051;-64
2022/03/12 09:09:40;;;;;;;10.10;4.40;;;12.10;68.40;;;;;;5112767;28;20028;-64
2022/03/12 09:12:08;;;;;;;9.10;4.75;;;12.10;69.10;;;;;;5113162;28;20036;-64
2022/03/12 09:14:36;;;;;;;8.73;5.80;;;12.10;68.10;;;;;;5113284;28;20024;-64
2022/03/12 09:17:05;;;;;;;8.35;4.47;;;12.10;68.70;;;;;;5113290;28;20040;-64
2022/03/12 09:19:32;;;;;;;8.52;4.90;;;12.20;68.20;;;;;;5113256;28;20046;-64
2022/03/12 09:21:59;;;;;;;12.65;6.00;;;12.20;68.30;;;;;;5113148;28;20038;-64
2022/03/12 09:24:25;;;;;;;8.23;4.20;;;12.30;68.70;;;;;;5113107;28;20048;-64
2022/03/12 09:26:50;;;;;;;8.65;4.63;;;12.50;67.20;;;;;;5113142;28;20043;-64
2022/03/12 09:29:16;;;;;;;9.82;4.68;;;12.60;65.60;;;;;;5113093;28;20032;-64
2022/03/12 09:31:41;;;;;;;9.13;4.43;;;12.50;66.20;;;;;;5113033;28;20024;-64
2022/03/12 09:34:08;;;;;;;10.40;5.70;;;12.50;66.80;;;;;;5113077;28;20055;-64
2022/03/12 09:36:35;;;;;;;8.82;4.75;;;12.60;66.70;;;;;;5113013;28;20024;-64
2022/03/12 09:39:02;;;;;;;8.05;5.00;;;12.80;66.00;;;;;;5113062;28;20031;-64
2022/03/12 09:41:28;;;;;;;15.02;8.30;;;12.70;64.90;;;;;;5113072;28;20024;-64
2022/03/12 09:43:54;;;;;;;9.10;4.93;;;12.70;65.10;;;;;;5113023;28;20028;-63
2022/03/12 09:46:19;;;;;;;9.80;5.45;;;12.70;65.40;;;;;;5112994;28;20036;-64
2022/03/12 09:48:45;;;;;;;8.60;3.75;;;12.70;65.20;;;;;;5112977;28;20016;-63
2022/03/12 09:51:11;;;;;;;11.13;4.45;;;12.80;65.00;;;;;;5112894;28;20405;-64
2022/03/12 09:53:37;;;;;;;10.45;3.47;;;12.80;64.20;;;;;;5112874;28;20043;-64
2022/03/12 09:56:03;;;;;;;8.38;3.80;;;12.70;64.50;;;;;;5112861;28;20024;-64
2022/03/12 09:58:29;;;;;;;7.53;3.60;;;12.60;64.20;;;;;;5112982;28;20062;-64
2022/03/12 10:00:54;;;;;;;7.68;4.10;;;12.60;63.90;;;;;;5112636;28;20044;-64
2022/03/12 10:03:20;;;;;;;8.15;4.07;;;12.70;64.30;;;;;;5112939;28;20493;-64
2022/03/12 10:05:45;;;;;;;9.15;4.53;;;12.80;65.10;;;;;;5112812;28;20043;-64
2022/03/12 10:08:11;;;;;;;9.90;5.15;;;12.80;64.20;;;;;;5112811;28;20032;-63
2022/03/12 10:10:37;;;;;;;8.02;3.90;;;12.90;64.40;;;;;;5112666;28;20036;-64
2022/03/12 10:13:04;;;;;;;9.30;4.28;;;13.00;63.90;;;;;;5112726;28;20036;-64
2022/03/12 10:15:30;;;;;;;7.82;4.38;;;13.00;63.90;;;;;;5112708;28;20020;-64
2022/03/12 10:17:56;;;;;;;5.70;3.78;;;13.00;63.20;;;;;;5112493;28;20021;-64
2022/03/12 10:20:22;;;;;;;6.88;3.97;;;12.90;63.70;;;;;;5112745;28;20024;-64
2022/03/12 10:22:48;;;;;;;9.90;4.00;;;12.90;63.30;;;;;;5115748;28;20057;-64
2022/03/12 10:25:14;;;;;;;8.18;4.00;;;12.90;63.70;;;;;;5116183;28;20025;-64
2022/03/12 10:27:41;;;;;;;6.28;3.53;;;13.00;62.10;;;;;;5116223;28;20030;-64
2022/03/12 10:30:07;;;;;;;6.45;3.65;;;12.90;62.90;;;;;;5116080;28;20052;-64
2022/03/12 10:32:41;;;;;;;6.18;3.47;;;13.00;62.40;;;;;;5116174;28;20020;-64
2022/03/12 10:35:08;;;;;;;8.25;3.92;;;12.90;61.70;;;;;;5116111;28;20024;-63
2022/03/12 10:37:35;;;;;;;7.30;4.10;;;12.90;62.70;;;;;;5116066;28;20021;-64
2022/03/12 10:40:03;;;;;;;5.00;2.92;;;12.90;62.70;;;;;;5098110;28;20020;-64
2022/03/12 10:42:31;;;;;;;7.97;4.60;;;12.90;62.60;;;;;;5116063;28;20071;-64
2022/03/12 10:45:14;;;;;;;8.60;4.10;;;12.90;62.40;;;;;;5115782;28;20036;-64
2022/03/12 10:47:47;;;;;;;8.93;4.20;;;12.90;63.10;;;;;;5115827;28;20020;-64
2022/03/12 10:50:20;;;;;;;9.13;4.63;;;12.90;63.40;;;;;;5115793;28;20028;-64
2022/03/12 10:52:49;;;;;;;5.47;3.40;;;13.00;63.50;;;;;;5115767;28;20020;-64
2022/03/12 10:55:42;;;;;;;9.30;4.43;;;12.90;63.40;;;;;;5115860;28;20016;-64
2022/03/12 10:58:21;;;;;;;11.23;4.38;;;13.00;63.90;;;;;;5107223;28;20032;-64
2022/03/12 11:00:59;;;;;;;9.80;4.53;;;13.00;63.90;;;;;;5115458;28;20114;-64
2022/03/12 11:03:31;;;;;;;8.20;4.15;;;13.10;63.30;;;;;;5115568;28;20020;-64
2022/03/12 11:05:58;;;;;;;6.72;3.40;;;13.10;64.40;;;;;;5115449;28;20047;-64
2022/03/12 11:08:29;;;;;;;9.00;4.25;;;13.10;63.00;;;;;;5115554;28;20020;-64
2022/03/12 11:11:15;;;;;;;11.60;4.75;;;13.10;62.70;;;;;;5115420;28;20024;-64
2022/03/12 11:13:50;;;;;;;10.48;5.10;;;13.20;64.00;;;;;;5115431;28;20039;-64
2022/03/12 11:16:24;;;;;;;9.30;5.75;;;13.20;63.20;;;;;;5097854;28;20463;-64
2022/03/12 11:18:53;;;;;;;8.32;4.90;;;13.30;63.10;;;;;;5115203;28;20024;-64
2022/03/12 11:21:37;;;;;;;8.98;5.68;;;13.30;63.10;;;;;;5115130;28;20024;-64
2022/03/12 11:24:12;;;;;;;11.02;5.60;;;13.50;63.60;;;;;;5115140;28;20028;-64
2022/03/12 11:26:53;;;;;;;9.50;4.97;;;13.60;62.90;;;;;;5115252;28;20022;-64
2022/03/12 11:29:21;;;;;;;9.05;5.32;;;13.60;61.80;;;;;;5114978;28;20088;-64
2022/03/12 11:31:48;;;;;;;10.75;4.85;;;13.80;62.40;;;;;;5114428;28;20079;-64
2022/03/12 11:34:23;;;;;;;10.93;4.60;;;14.00;63.20;;;;;;5114937;28;20024;-64
2022/03/12 11:36:55;;;;;;;8.90;4.90;;;14.30;62.30;;;;;;5114906;28;20031;-64
2022/03/12 11:39:32;;;;;;;9.30;5.15;;;14.30;60.00;;;;;;5114843;28;20068;-64
2022/03/12 11:42:02;;;;;;;6.75;4.22;;;14.40;59.70;;;;;;5114765;28;20077;-64
2022/03/12 11:44:29;;;;;;;7.45;4.95;;;14.40;59.40;;;;;;5114731;28;20035;-64
2022/03/12 11:46:56;;;;;;;8.82;4.65;;;14.20;59.50;;;;;;5114630;28;20024;-63
2022/03/12 11:49:23;;;;;;;9.48;5.00;;;14.20;59.90;;;;;;5114592;28;20057;-64
2022/03/12 11:51:48;;;;;;;7.65;4.53;;;14.20;60.10;;;;;;5114513;28;20119;-64
2022/03/12 11:54:14;;;;;;;9.18;4.90;;;14.50;58.90;;;;;;5114499;28;20024;-64
2022/03/12 11:56:40;;;;;;;10.20;4.70;;;14.60;59.20;;;;;;5114496;28;20085;-64
2022/03/12 11:59:06;;;;;;;7.40;4.30;;;14.70;58.30;;;;;;5114468;28;20012;-64
2022/03/12 12:01:36;;;;;;;7.75;4.28;;;14.70;58.30;;;;;;5114250;28;20143;-64
2022/03/12 12:04:02;;;;;;;7.85;4.45;;;14.70;57.80;;;;;;5114411;28;20094;-62
2022/03/12 12:06:28;;;;;;;8.70;4.13;;;14.70;58.30;;;;;;5114302;28;20024;-63
2022/03/12 12:08:55;;;;;;;5.68;3.47;;;14.70;58.00;;;;;;5114255;28;20100;-64
2022/03/12 12:11:21;;;;;;;7.80;4.20;;;14.60;58.30;;;;;;5096330;28;20066;-64
2022/03/12 12:13:46;;;;;;;7.22;3.35;;;14.50;59.30;;;;;;5114126;28;20421;-64
2022/03/12 12:16:15;;;;;;;7.97;4.22;;;14.60;57.30;;;;;;5114119;28;20038;-64
2022/03/12 12:18:41;;;;;;;7.03;3.60;;;14.60;58.20;;;;;;5114067;28;20024;-64
2022/03/12 12:21:16;;;;;;;7.90;3.63;;;14.50;56.40;;;;;;5114029;28;20024;-64
2022/03/12 12:23:42;;;;;;;8.85;3.97;;;14.50;56.70;;;;;;5113984;28;20083;-64
2022/03/12 12:26:09;;;;;;;9.35;4.10;;;14.50;56.30;;;;;;5114053;28;20035;-64
2022/03/12 12:28:48;;;;;;;9.90;4.97;;;14.60;56.30;;;;;;5113929;28;20031;-64
2022/03/12 12:31:22;;;;;;;11.77;4.40;;;14.70;57.20;;;;;;5113767;28;20024;-64
2022/03/12 12:33:48;;;;;;;10.07;3.70;;;14.80;55.90;;;;;;5113848;28;20023;-64
2022/03/12 12:36:18;;;;;;;8.90;3.63;;;14.90;55.40;;;;;;5113790;28;20407;-64
2022/03/12 12:39:05;;;;;;;6.03;2.83;;;15.10;55.70;;;;;;5113717;28;20031;-64
2022/03/12 12:41:58;;;;;;;9.63;5.40;;;15.00;53.60;;;;;;5113665;28;20028;-64
2022/03/12 12:44:43;;;;;;;6.50;3.35;;;15.10;55.10;;;;;;5112893;28;20016;-64
2022/03/12 12:47:17;;;;;;;6.85;3.15;;;15.10;54.10;;;;;;5113598;28;20028;-64